Time;durP1;ratioP1;P1;durP2;ratioP2;P2;SDS_P1;SDS_P2;PMS_P1;PMS_P2;Temp;Humidity;BMP_temperature;BMP_pressure;BME280_temperature;BME280_humidity;BME280_pressure;Samples;Min_cycle;Max_cycle;Signal;HPM_P1;HPM_P2
2023/12/13 00:01:38;;;;;;;21.13;11.43;;;;;;;;;;5041588;28;20181;-79
2023/12/13 00:04:03;;;;;;;21.00;11.52;;;;;;;;;;5031895;28;20200;-79
2023/12/13 00:06:29;;;;;;;17.90;10.80;;;;;;;;;;5020151;28;20181;-78
2023/12/13 00:08:55;;;;;;;20.80;11.15;;;;;;;;;;5031002;28;20190;-79
2023/12/13 00:11:20;;;;;;;19.50;11.18;;;;;;;;;;5011772;28;20220;-79
2023/12/13 00:13:46;;;;;;;20.30;11.23;;;;;;;;;;5029658;28;20240;-79
2023/12/13 00:16:16;;;;;;;17.45;11.07;;;;;;;;;;5012413;28;20229;-80
2023/12/13 00:18:41;;;;;;;18.40;11.93;;;;;;;;;;5020452;28;20542;-80
2023/12/13 00:21:09;;;;;;;22.55;11.48;;;;;;;;;;5030220;28;20220;-79
2023/12/13 00:23:34;;;;;;;23.60;11.93;;;;;;;;;;5018756;28;20186;-80
2023/12/13 00:26:00;;;;;;;19.50;10.85;;;;;;;;;;5026054;28;20602;-80
2023/12/13 00:28:25;;;;;;;19.00;10.75;;;;;;;;;;5009665;28;20188;-79
2023/12/13 00:30:50;;;;;;;25.73;12.57;;;;;;;;;;5024143;28;20246;-79
2023/12/13 00:33:16;;;;;;;17.40;10.77;;;;;;;;;;5018010;28;20663;-79
2023/12/13 00:35:41;;;;;;;16.13;10.77;;;;;;;;;;5036357;28;20214;-79
2023/12/13 00:38:08;;;;;;;17.77;11.18;;;;;;;;;;5037696;28;20665;-79
2023/12/13 00:40:34;;;;;;;16.58;10.55;;;;;;;;;;5013239;28;20210;-79
2023/12/13 00:43:01;;;;;;;21.58;12.55;;;;;;;;;;5034197;28;20236;-79
2023/12/13 00:45:26;;;;;;;17.60;11.32;;;;;;;;;;5034791;28;20212;-78
2023/12/13 00:47:52;;;;;;;18.02;10.90;;;;;;;;;;5010978;28;20186;-78
2023/12/13 00:50:18;;;;;;;25.00;12.25;;;;;;;;;;5016347;28;20177;-79
2023/12/13 00:52:43;;;;;;;21.00;11.60;;;;;;;;;;5030798;28;20240;-79
2023/12/13 00:55:09;;;;;;;18.75;11.88;;;;;;;;;;5036877;28;20190;-79
2023/12/13 00:57:35;;;;;;;18.40;11.25;;;;;;;;;;5030058;28;20242;-79
2023/12/13 01:00:00;;;;;;;20.00;11.05;;;;;;;;;;5021830;28;20217;-78
2023/12/13 01:02:27;;;;;;;19.23;11.80;;;;;;;;;;5029540;28;20715;-78
2023/12/13 01:04:52;;;;;;;22.55;11.32;;;;;;;;;;5013412;28;20277;-78
2023/12/13 01:07:18;;;;;;;14.68;10.25;;;;;;;;;;5043772;28;20315;-78
2023/12/13 01:09:43;;;;;;;21.42;11.77;;;;;;;;;;5032068;28;20245;-79
2023/12/13 01:12:09;;;;;;;21.55;11.75;;;;;;;;;;5038408;28;20618;-78
2023/12/13 01:14:35;;;;;;;17.05;10.80;;;;;;;;;;5019672;28;20725;-79
2023/12/13 01:17:01;;;;;;;20.00;11.50;;;;;;;;;;5023745;28;20249;-79
2023/12/13 01:19:26;;;;;;;16.77;11.80;;;;;;;;;;5029248;28;20210;-79
2023/12/13 01:21:52;;;;;;;19.90;11.10;;;;;;;;;;5035946;28;20563;-79
2023/12/13 01:24:18;;;;;;;16.17;11.90;;;;;;;;;;5019027;28;20201;-79
2023/12/13 01:26:43;;;;;;;20.52;11.73;;;;;;;;;;5015222;28;20189;-79
2023/12/13 01:29:09;;;;;;;23.05;11.98;;;;;;;;;;5018007;28;20186;-79
2023/12/13 01:31:35;;;;;;;21.83;13.07;;;;;;;;;;5017035;28;20191;-79
2023/12/13 01:34:02;;;;;;;21.15;12.40;;;;;;;;;;5009924;28;20198;-79
2023/12/13 01:36:28;;;;;;;20.17;12.43;;;;;;;;;;5037415;28;20256;-79
2023/12/13 01:38:53;;;;;;;22.52;12.95;;;;;;;;;;5018728;28;20248;-79
2023/12/13 01:41:19;;;;;;;22.75;13.13;;;;;;;;;;5022987;28;20197;-79
2023/12/13 01:43:45;;;;;;;20.20;12.68;;;;;;;;;;5042417;28;20190;-80
2023/12/13 01:46:12;;;;;;;24.48;12.50;;;;;;;;;;5016917;28;20191;-79
2023/12/13 01:48:39;;;;;;;19.20;12.35;;;;;;;;;;5031449;28;20182;-80
2023/12/13 01:51:04;;;;;;;18.83;11.68;;;;;;;;;;5048421;28;20573;-80
2023/12/13 01:53:33;;;;;;;16.88;10.95;;;;;;;;;;5036519;28;20243;-80
2023/12/13 01:55:59;;;;;;;21.23;11.63;;;;;;;;;;5019801;28;20209;-81
2023/12/13 01:58:25;;;;;;;18.13;11.27;;;;;;;;;;5026024;28;20235;-80
2023/12/13 02:00:51;;;;;;;22.98;11.95;;;;;;;;;;5027256;28;20198;-79
2023/12/13 02:03:18;;;;;;;22.60;11.82;;;;;;;;;;5030012;28;20193;-80
2023/12/13 02:05:44;;;;;;;20.38;11.45;;;;;;;;;;5027468;28;20198;-80
2023/12/13 02:08:09;;;;;;;20.55;11.55;;;;;;;;;;5030257;28;20190;-80
2023/12/13 02:10:35;;;;;;;20.38;11.07;;;;;;;;;;5024219;28;20182;-79
2023/12/13 02:13:01;;;;;;;19.23;10.30;;;;;;;;;;5027316;28;20179;-79
2023/12/13 02:15:26;;;;;;;22.83;10.40;;;;;;;;;;5034940;28;20770;-79
2023/12/13 02:17:52;;;;;;;20.67;10.13;;;;;;;;;;5032502;28;20217;-80
2023/12/13 02:20:18;;;;;;;20.15;10.65;;;;;;;;;;5033151;28;20229;-79
2023/12/13 02:22:44;;;;;;;20.17;10.95;;;;;;;;;;5028825;28;20608;-79
2023/12/13 02:25:21;;;;;;;18.35;11.20;;;;;;;;;;5023005;28;20269;-80
2023/12/13 02:27:46;;;;;;;21.52;11.85;;;;;;;;;;5020488;28;20228;-79
2023/12/13 02:30:12;;;;;;;21.77;11.75;;;;;;;;;;5034672;28;20299;-79
2023/12/13 02:32:38;;;;;;;21.05;11.70;;;;;;;;;;5014657;28;20249;-79
2023/12/13 02:35:04;;;;;;;21.73;11.48;;;;;;;;;;5034975;28;20194;-79
2023/12/13 02:37:30;;;;;;;22.42;12.02;;;;;;;;;;5036643;28;20234;-79
2023/12/13 02:39:58;;;;;;;23.50;12.50;;;;;;;;;;5032727;28;20273;-79
2023/12/13 02:42:25;;;;;;;26.33;12.95;;;;;;;;;;5026141;28;20204;-79
2023/12/13 02:44:51;;;;;;;21.30;12.85;;;;;;;;;;5021929;28;20191;-79
2023/12/13 02:47:16;;;;;;;26.85;13.65;;;;;;;;;;5011603;28;20213;-79
2023/12/13 02:49:42;;;;;;;19.55;12.82;;;;;;;;;;5028265;28;20210;-79
2023/12/13 02:52:07;;;;;;;25.50;12.82;;;;;;;;;;5028005;28;20193;-78
2023/12/13 02:54:33;;;;;;;26.35;13.40;;;;;;;;;;5039360;28;20737;-78
2023/12/13 02:56:58;;;;;;;22.52;14.15;;;;;;;;;;5039800;28;20678;-77
2023/12/13 02:59:23;;;;;;;25.23;15.07;;;;;;;;;;5017982;28;20182;-79
2023/12/13 03:01:49;;;;;;;24.17;14.10;;;;;;;;;;5023097;28;20191;-78
2023/12/13 03:04:14;;;;;;;24.25;14.63;;;;;;;;;;5020528;28;20212;-78
2023/12/13 03:06:40;;;;;;;29.55;15.13;;;;;;;;;;5046664;28;20174;-78
2023/12/13 03:09:05;;;;;;;25.92;14.90;;;;;;;;;;5042130;28;20226;-77
2023/12/13 03:11:31;;;;;;;25.70;14.18;;;;;;;;;;5032526;28;20197;-78
2023/12/13 03:13:56;;;;;;;23.63;13.65;;;;;;;;;;5017594;28;20185;-78
2023/12/13 03:16:22;;;;;;;25.27;13.98;;;;;;;;;;5010881;28;20234;-77
2023/12/13 03:18:47;;;;;;;22.80;13.57;;;;;;;;;;5036805;28;20601;-78
2023/12/13 03:21:13;;;;;;;24.92;14.65;;;;;;;;;;5038477;28;20235;-77
2023/12/13 03:23:38;;;;;;;22.85;14.52;;;;;;;;;;5030889;28;20899;-77
2023/12/13 03:26:04;;;;;;;21.85;13.98;;;;;;;;;;5021398;28;20334;-78
2023/12/13 03:28:29;;;;;;;26.73;15.13;;;;;;;;;;5033154;28;20281;-78
2023/12/13 03:30:55;;;;;;;26.80;14.40;;;;;;;;;;5038483;28;20178;-77
2023/12/13 03:33:20;;;;;;;21.73;14.98;;;;;;;;;;5039240;28;20178;-77
2023/12/13 03:35:46;;;;;;;19.50;14.35;;;;;;;;;;5034768;28;20252;-78
2023/12/13 03:38:11;;;;;;;28.30;13.98;;;;;;;;;;5017966;28;20228;-76
2023/12/13 03:40:37;;;;;;;21.73;13.45;;;;;;;;;;5037894;28;20482;-76
2023/12/13 03:43:03;;;;;;;22.55;12.35;;;;;;;;;;5025915;28;20232;-77
2023/12/13 03:45:29;;;;;;;22.75;12.93;;;;;;;;;;5019702;28;20221;-77
2023/12/13 03:47:54;;;;;;;22.92;12.95;;;;;;;;;;5027888;28;20544;-78
2023/12/13 03:50:20;;;;;;;29.10;12.98;;;;;;;;;;5018708;28;20189;-78
2023/12/13 03:52:46;;;;;;;21.25;12.35;;;;;;;;;;5028410;28;20284;-78
2023/12/13 03:55:12;;;;;;;24.05;12.10;;;;;;;;;;5016566;28;20665;-78
2023/12/13 03:57:39;;;;;;;22.55;12.32;;;;;;;;;;5015538;28;20198;-77
2023/12/13 04:00:05;;;;;;;16.85;12.07;;;;;;;;;;5017985;28;20186;-78
2023/12/13 04:02:30;;;;;;;19.02;11.23;;;;;;;;;;5018345;28;20244;-79
2023/12/13 04:04:55;;;;;;;18.45;11.02;;;;;;;;;;5030016;28;20604;-78
2023/12/13 04:07:21;;;;;;;20.55;11.63;;;;;;;;;;5032524;28;20617;-79
2023/12/13 04:09:46;;;;;;;17.70;11.02;;;;;;;;;;5014975;28;20673;-79
2023/12/13 04:12:12;;;;;;;22.45;11.52;;;;;;;;;;5028815;28;20583;-78
2023/12/13 04:14:37;;;;;;;21.83;11.10;;;;;;;;;;5039343;28;20183;-79
2023/12/13 04:17:03;;;;;;;22.63;10.90;;;;;;;;;;5027593;28;20225;-79
2023/12/13 04:19:29;;;;;;;19.13;10.98;;;;;;;;;;5038935;28;20209;-79
2023/12/13 04:21:54;;;;;;;23.98;10.60;;;;;;;;;;5017174;28;20212;-79
2023/12/13 04:24:20;;;;;;;20.73;11.10;;;;;;;;;;5039048;28;20714;-79
2023/12/13 04:26:45;;;;;;;17.63;10.57;;;;;;;;;;5017574;28;20519;-79
2023/12/13 04:29:11;;;;;;;18.38;9.85;;;;;;;;;;5031113;28;20254;-79
2023/12/13 04:31:36;;;;;;;22.58;10.48;;;;;;;;;;5024382;28;20182;-78
2023/12/13 04:34:01;;;;;;;17.60;10.10;;;;;;;;;;5030353;28;20221;-79
2023/12/13 04:36:27;;;;;;;14.60;9.15;;;;;;;;;;5011030;28;20236;-79
2023/12/13 04:38:53;;;;;;;21.08;8.65;;;;;;;;;;5032481;28;20657;-79
2023/12/13 04:41:18;;;;;;;13.93;7.68;;;;;;;;;;5030411;28;20315;-78
2023/12/13 04:43:44;;;;;;;19.08;8.15;;;;;;;;;;5037351;28;20211;-79
2023/12/13 04:46:09;;;;;;;18.23;8.43;;;;;;;;;;5036021;28;20182;-79
2023/12/13 04:48:34;;;;;;;11.63;8.15;;;;;;;;;;5030041;28;20246;-79
2023/12/13 04:51:00;;;;;;;17.08;8.27;;;;;;;;;;5042327;28;20268;-78
2023/12/13 04:53:26;;;;;;;19.63;8.07;;;;;;;;;;5035652;28;20182;-78
2023/12/13 04:55:51;;;;;;;13.82;7.75;;;;;;;;;;5050163;28;20652;-78
2023/12/13 04:58:16;;;;;;;12.00;6.47;;;;;;;;;;5036540;28;20202;-78
2023/12/13 05:00:42;;;;;;;14.02;6.18;;;;;;;;;;5029181;28;20194;-78
2023/12/13 05:03:07;;;;;;;13.80;6.82;;;;;;;;;;5037959;28;20194;-78
2023/12/13 05:05:33;;;;;;;13.02;6.82;;;;;;;;;;5044947;28;20211;-78
2023/12/13 05:07:58;;;;;;;12.35;6.00;;;;;;;;;;5042659;28;20189;-78
2023/12/13 05:10:24;;;;;;;12.85;6.20;;;;;;;;;;5046738;28;20182;-78
2023/12/13 05:12:49;;;;;;;13.40;6.78;;;;;;;;;;5042221;28;20269;-78
2023/12/13 05:15:14;;;;;;;16.42;6.63;;;;;;;;;;5018113;28;20218;-78
2023/12/13 05:17:40;;;;;;;13.63;6.57;;;;;;;;;;5042918;28;20221;-78
2023/12/13 05:20:06;;;;;;;13.07;6.70;;;;;;;;;;5044188;28;20563;-78
2023/12/13 05:22:32;;;;;;;12.27;6.30;;;;;;;;;;5026072;28;20186;-78
2023/12/13 05:24:58;;;;;;;14.07;6.82;;;;;;;;;;5044568;28;20196;-77
2023/12/13 05:27:23;;;;;;;18.45;8.82;;;;;;;;;;5015192;28;20197;-78
2023/12/13 05:29:48;;;;;;;14.48;7.75;;;;;;;;;;5029645;28;20221;-78
2023/12/13 05:32:14;;;;;;;13.82;7.45;;;;;;;;;;5029190;28;20197;-78
2023/12/13 05:34:39;;;;;;;11.95;7.28;;;;;;;;;;5015456;28;20189;-78
2023/12/13 05:37:07;;;;;;;15.77;7.40;;;;;;;;;;5045273;28;20270;-78
2023/12/13 05:39:33;;;;;;;15.57;8.13;;;;;;;;;;5040450;28;20637;-78
2023/12/13 05:41:58;;;;;;;13.63;7.78;;;;;;;;;;5031421;28;20753;-78
2023/12/13 05:44:24;;;;;;;14.48;7.70;;;;;;;;;;5034025;28;20194;-78
2023/12/13 05:46:49;;;;;;;18.42;7.82;;;;;;;;;;5020887;28;20257;-77
2023/12/13 05:49:15;;;;;;;17.00;8.73;;;;;;;;;;5034511;28;20586;-78
2023/12/13 05:51:40;;;;;;;15.70;8.38;;;;;;;;;;5018584;28;20571;-77
2023/12/13 05:54:06;;;;;;;14.80;8.45;;;;;;;;;;5034613;28;20190;-77
2023/12/13 05:56:31;;;;;;;13.05;7.95;;;;;;;;;;5029574;28;20251;-77
2023/12/13 05:58:57;;;;;;;15.88;8.38;;;;;;;;;;5028901;28;20228;-77
2023/12/13 06:01:23;;;;;;;18.35;8.50;;;;;;;;;;5045959;28;20611;-77
2023/12/13 06:03:48;;;;;;;16.20;9.38;;;;;;;;;;5016643;28;20190;-77
2023/12/13 06:06:14;;;;;;;13.95;9.80;;;;;;;;;;5034721;28;20189;-78
2023/12/13 06:08:40;;;;;;;12.90;8.68;;;;;;;;;;5017550;28;20182;-77
2023/12/13 06:11:07;;;;;;;12.65;8.15;;;;;;;;;;5040445;28;20264;-77
2023/12/13 06:13:33;;;;;;;19.73;8.77;;;;;;;;;;5041778;28;20629;-77
2023/12/13 06:15:58;;;;;;;15.98;8.65;;;;;;;;;;5024560;28;20257;-77
2023/12/13 06:18:24;;;;;;;18.60;8.80;;;;;;;;;;5046719;28;20221;-77
2023/12/13 06:20:49;;;;;;;15.35;8.70;;;;;;;;;;5028104;28;20257;-77
2023/12/13 06:23:14;;;;;;;14.15;8.45;;;;;;;;;;5024770;28;20712;-77
2023/12/13 06:25:40;;;;;;;16.48;8.68;;;;;;;;;;5023356;28;20190;-77
2023/12/13 06:28:05;;;;;;;12.57;8.57;;;;;;;;;;5030884;28;20197;-77
2023/12/13 06:30:31;;;;;;;16.58;8.13;;;;;;;;;;5022074;28;20197;-77
2023/12/13 06:32:57;;;;;;;19.05;9.57;;;;;;;;;;5024413;28;20190;-77
2023/12/13 06:35:22;;;;;;;20.45;9.32;;;;;;;;;;5024932;28;20562;-77
2023/12/13 06:37:48;;;;;;;14.88;8.88;;;;;;;;;;5025068;28;20221;-77
2023/12/13 06:40:14;;;;;;;14.80;9.43;;;;;;;;;;5022275;28;20197;-77
2023/12/13 06:42:41;;;;;;;19.77;9.63;;;;;;;;;;5004383;28;20471;-78
2023/12/13 06:45:07;;;;;;;18.52;9.80;;;;;;;;;;5025097;28;20603;-77
2023/12/13 06:47:32;;;;;;;13.43;9.70;;;;;;;;;;5031712;28;20575;-77
2023/12/13 06:49:58;;;;;;;15.25;9.15;;;;;;;;;;5020164;28;20261;-77
2023/12/13 06:52:23;;;;;;;14.48;9.85;;;;;;;;;;5011321;28;20644;-77
2023/12/13 06:54:49;;;;;;;20.50;9.52;;;;;;;;;;5030196;28;20189;-77
2023/12/13 06:57:16;;;;;;;17.00;10.05;;;;;;;;;;5024953;28;20256;-77
2023/12/13 06:59:42;;;;;;;19.45;10.25;;;;;;;;;;5028953;28;20205;-78
2023/12/13 07:02:07;;;;;;;16.40;11.00;;;;;;;;;;5008874;28;20646;-78
2023/12/13 07:04:32;;;;;;;18.95;10.93;;;;;;;;;;5025184;28;20544;-78
2023/12/13 07:06:58;;;;;;;18.13;11.25;;;;;;;;;;5044408;28;20514;-78
2023/12/13 07:09:24;;;;;;;21.67;11.43;;;;;;;;;;5021875;28;20191;-78
2023/12/13 07:11:50;;;;;;;18.92;10.57;;;;;;;;;;5019862;28;20542;-77
2023/12/13 07:14:15;;;;;;;21.23;11.68;;;;;;;;;;5011857;28;20197;-77
2023/12/13 07:16:44;;;;;;;22.73;11.98;;;;;;;;;;5001480;28;20739;-77
2023/12/13 07:19:10;;;;;;;21.73;12.10;;;;;;;;;;5019660;28;20210;-77
2023/12/13 07:21:35;;;;;;;18.63;11.55;;;;;;;;;;5040953;28;20592;-78
2023/12/13 07:24:02;;;;;;;24.13;12.25;;;;;;;;;;5018979;28;20195;-77
2023/12/13 07:26:27;;;;;;;17.38;11.98;;;;;;;;;;5014328;28;20722;-77
2023/12/13 07:28:53;;;;;;;23.13;12.63;;;;;;;;;;5016414;28;20212;-77
2023/12/13 07:31:18;;;;;;;22.02;13.95;;;;;;;;;;5014854;28;20208;-77
2023/12/13 07:33:44;;;;;;;19.40;12.77;;;;;;;;;;4998339;28;20182;-77
2023/12/13 07:36:12;;;;;;;24.55;12.57;;;;;;;;;;5017719;28;20193;-77
2023/12/13 07:38:41;;;;;;;22.58;13.35;;;;;;;;;;5030019;28;20239;-78
2023/12/13 07:41:07;;;;;;;25.63;13.55;;;;;;;;;;5020213;28;20185;-77
2023/12/13 07:43:32;;;;;;;23.55;13.02;;;;;;;;;;5035756;28;20194;-77
2023/12/13 07:45:58;;;;;;;23.70;12.88;;;;;;;;;;5023230;28;20680;-77
2023/12/13 07:48:24;;;;;;;27.17;14.40;;;;;;;;;;5026628;28;20205;-77
2023/12/13 07:50:50;;;;;;;22.55;13.32;;;;;;;;;;5006584;28;20197;-77
2023/12/13 07:53:16;;;;;;;25.27;13.95;;;;;;;;;;5019624;28;20541;-77
2023/12/13 07:55:41;;;;;;;27.40;14.50;;;;;;;;;;5026029;28;20206;-77
2023/12/13 07:58:07;;;;;;;26.73;14.95;;;;;;;;;;5016475;28;20229;-77
2023/12/13 08:00:32;;;;;;;25.38;14.10;;;;;;;;;;5003832;28;20234;-77
2023/12/13 08:02:58;;;;;;;26.02;15.27;;;;;;;;;;5009682;28;20653;-77
2023/12/13 08:05:23;;;;;;;25.15;15.02;;;;;;;;;;5010995;28;20189;-77
2023/12/13 08:07:49;;;;;;;23.40;14.90;;;;;;;;;;5028446;28;20183;-77
2023/12/13 08:10:15;;;;;;;27.48;16.05;;;;;;;;;;5023143;28;20213;-77
2023/12/13 08:12:44;;;;;;;23.35;14.82;;;;;;;;;;5023838;28;20194;-77
2023/12/13 08:15:12;;;;;;;24.63;14.60;;;;;;;;;;5024659;28;20236;-77
2023/12/13 08:17:38;;;;;;;23.45;15.05;;;;;;;;;;5025441;28;20225;-77
2023/12/13 08:20:04;;;;;;;23.00;15.30;;;;;;;;;;5025797;28;20871;-77
2023/12/13 08:22:30;;;;;;;29.75;15.65;;;;;;;;;;5026489;28;20212;-77
2023/12/13 08:24:55;;;;;;;36.95;15.88;;;;;;;;;;5038221;28;20316;-77
2023/12/13 08:27:21;;;;;;;27.88;14.90;;;;;;;;;;5012305;28;20178;-77
2023/12/13 08:29:46;;;;;;;28.75;16.23;;;;;;;;;;5011685;28;20243;-77
2023/12/13 08:32:12;;;;;;;27.85;16.67;;;;;;;;;;5011529;28;20186;-77
2023/12/13 08:34:37;;;;;;;31.88;16.95;;;;;;;;;;5027327;28;20255;-77
2023/12/13 08:37:03;;;;;;;25.73;15.75;;;;;;;;;;5024815;28;20692;-78
2023/12/13 08:39:28;;;;;;;27.40;16.23;;;;;;;;;;5027900;28;20756;-79
2023/12/13 08:41:53;;;;;;;29.92;16.48;;;;;;;;;;5030605;28;20190;-79
2023/12/13 08:44:19;;;;;;;27.23;17.65;;;;;;;;;;5031235;28;20501;-79
2023/12/13 08:46:47;;;;;;;30.48;15.98;;;;;;;;;;5002631;28;20194;-79
2023/12/13 08:49:13;;;;;;;23.38;15.57;;;;;;;;;;5014125;28;20195;-78
2023/12/13 08:51:38;;;;;;;27.80;15.65;;;;;;;;;;5018024;28;20314;-78
2023/12/13 08:54:04;;;;;;;25.98;14.95;;;;;;;;;;5016974;28;20193;-78
2023/12/13 08:56:30;;;;;;;32.47;16.33;;;;;;;;;;5028362;28;20203;-78
2023/12/13 08:58:55;;;;;;;28.55;15.60;;;;;;;;;;5019805;28;20192;-78
2023/12/13 09:01:21;;;;;;;27.42;15.75;;;;;;;;;;5036708;28;20183;-78
2023/12/13 09:03:46;;;;;;;23.73;15.18;;;;;;;;;;5023244;28;20248;-78
2023/12/13 09:06:14;;;;;;;23.38;14.95;;;;;;;;;;5010320;28;20190;-78
2023/12/13 09:08:40;;;;;;;23.80;14.68;;;;;;;;;;5025794;28;20194;-79
2023/12/13 09:11:05;;;;;;;31.27;16.20;;;;;;;;;;5032888;28;20214;-79
2023/12/13 09:13:32;;;;;;;21.63;14.77;;;;;;;;;;5014596;28;20186;-79
2023/12/13 09:15:57;;;;;;;25.75;17.05;;;;;;;;;;5017890;28;20313;-79
2023/12/13 09:18:22;;;;;;;23.75;15.30;;;;;;;;;;5030925;28;20304;-79
2023/12/13 09:20:48;;;;;;;27.92;16.20;;;;;;;;;;5024581;28;20183;-79
2023/12/13 09:23:24;;;;;;;25.63;15.82;;;;;;;;;;5017797;28;20214;-80
2023/12/13 09:25:51;;;;;;;22.77;15.48;;;;;;;;;;5040629;28;20206;-79
2023/12/13 09:28:17;;;;;;;26.15;15.45;;;;;;;;;;5008423;28;20186;-79
2023/12/13 09:30:44;;;;;;;22.00;14.98;;;;;;;;;;4999291;28;20708;-79
2023/12/13 09:33:13;;;;;;;27.67;15.75;;;;;;;;;;5010113;28;20194;-79
2023/12/13 09:35:39;;;;;;;28.38;16.50;;;;;;;;;;5024703;28;20226;-79
2023/12/13 09:38:05;;;;;;;27.05;16.50;;;;;;;;;;5026396;28;20268;-79
2023/12/13 09:40:31;;;;;;;24.23;15.43;;;;;;;;;;5026766;28;20646;-79
2023/12/13 09:42:56;;;;;;;26.13;15.45;;;;;;;;;;5010327;28;20183;-79
2023/12/13 09:45:23;;;;;;;29.75;15.98;;;;;;;;;;5011464;28;20190;-79
2023/12/13 09:47:50;;;;;;;32.65;16.27;;;;;;;;;;5026894;28;20194;-79
2023/12/13 09:50:16;;;;;;;26.73;16.33;;;;;;;;;;5032493;28;20183;-79
2023/12/13 09:52:43;;;;;;;25.42;16.80;;;;;;;;;;5028054;28;20205;-79
2023/12/13 09:55:10;;;;;;;29.17;15.63;;;;;;;;;;5021412;28;20183;-79
2023/12/13 09:57:35;;;;;;;35.22;16.90;;;;;;;;;;5025100;28;20527;-79
2023/12/13 10:00:01;;;;;;;30.13;17.05;;;;;;;;;;5050303;28;20193;-79
2023/12/13 10:02:27;;;;;;;26.08;16.67;;;;;;;;;;5021334;28;20190;-79
2023/12/13 10:04:53;;;;;;;30.38;16.92;;;;;;;;;;5022648;28;20198;-79
2023/12/13 10:07:18;;;;;;;28.90;16.65;;;;;;;;;;5024119;28;20553;-79
2023/12/13 10:09:45;;;;;;;27.77;16.20;;;;;;;;;;5016094;28;20191;-79
2023/12/13 10:12:15;;;;;;;30.13;16.70;;;;;;;;;;5006827;28;20273;-79
2023/12/13 10:14:41;;;;;;;29.13;16.88;;;;;;;;;;5020122;28;20614;-79
2023/12/13 10:17:07;;;;;;;32.22;16.95;;;;;;;;;;5010676;28;20261;-79
2023/12/13 10:19:33;;;;;;;32.15;17.42;;;;;;;;;;5026067;28;20708;-79
2023/12/13 10:21:59;;;;;;;28.88;16.95;;;;;;;;;;5023054;28;20178;-80
2023/12/13 10:24:25;;;;;;;29.35;18.00;;;;;;;;;;5021814;28;20182;-79
2023/12/13 10:26:50;;;;;;;32.05;18.05;;;;;;;;;;5045259;28;20185;-80
2023/12/13 10:29:18;;;;;;;31.42;18.92;;;;;;;;;;5009781;28;20182;-79
2023/12/13 10:31:47;;;;;;;29.13;17.65;;;;;;;;;;5019136;28;20194;-79
2023/12/13 10:34:13;;;;;;;32.28;17.85;;;;;;;;;;5030450;28;20656;-79
2023/12/13 10:36:39;;;;;;;36.30;18.35;;;;;;;;;;5014377;28;20268;-79
2023/12/13 10:39:07;;;;;;;27.23;18.52;;;;;;;;;;5053468;28;20183;-79
2023/12/13 10:41:33;;;;;;;32.10;17.52;;;;;;;;;;5024551;28;20205;-79
2023/12/13 10:44:03;;;;;;;29.23;17.65;;;;;;;;;;5020329;28;20182;-80
2023/12/13 10:46:35;;;;;;;30.77;17.60;;;;;;;;;;5018394;28;20205;-80
2023/12/13 10:49:05;;;;;;;28.65;17.45;;;;;;;;;;5004563;28;20182;-80
2023/12/13 10:51:33;;;;;;;28.27;17.65;;;;;;;;;;5052118;28;20557;-80
2023/12/13 10:53:58;;;;;;;27.48;17.52;;;;;;;;;;4993314;28;20209;-80
2023/12/13 10:56:24;;;;;;;27.77;16.98;;;;;;;;;;5020876;28;20529;-80
2023/12/13 10:58:51;;;;;;;30.85;18.25;;;;;;;;;;5019904;28;20223;-80
2023/12/13 11:01:18;;;;;;;33.38;16.95;;;;;;;;;;5026850;28;20182;-80
2023/12/13 11:03:57;;;;;;;28.42;17.77;;;;;;;;;;5007910;28;20218;-80
2023/12/13 11:06:22;;;;;;;32.13;17.25;;;;;;;;;;5024587;28;20190;-80
2023/12/13 11:08:48;;;;;;;34.10;17.83;;;;;;;;;;5020292;28;20570;-80
2023/12/13 11:11:16;;;;;;;30.20;17.42;;;;;;;;;;5017266;28;20712;-79
2023/12/13 11:13:48;;;;;;;30.30;18.00;;;;;;;;;;5009312;28;20201;-79
2023/12/13 11:16:22;;;;;;;29.33;16.33;;;;;;;;;;5028032;28;20249;-79
2023/12/13 11:18:50;;;;;;;38.15;17.65;;;;;;;;;;5041325;28;20246;-79
2023/12/13 11:21:27;;;;;;;30.58;17.13;;;;;;;;;;5030175;28;20201;-79
2023/12/13 11:24:00;;;;;;;32.67;18.10;;;;;;;;;;5023544;28;20435;-79
2023/12/13 11:26:32;;;;;;;34.85;18.17;;;;;;;;;;5022781;28;20190;-78
2023/12/13 11:29:00;;;;;;;26.35;16.33;;;;;;;;;;5025460;28;20189;-78
2023/12/13 11:31:26;;;;;;;29.45;16.63;;;;;;;;;;5023722;28;20205;-78
2023/12/13 11:33:56;;;;;;;32.33;16.90;;;;;;;;;;5043309;28;20314;-79
2023/12/13 11:36:23;;;;;;;26.23;15.30;;;;;;;;;;5027780;28;20182;-79
2023/12/13 11:38:50;;;;;;;25.98;15.20;;;;;;;;;;5006967;28;20198;-78
2023/12/13 11:41:16;;;;;;;31.02;16.95;;;;;;;;;;5024150;28;20240;-78
2023/12/13 11:43:43;;;;;;;22.77;14.60;;;;;;;;;;5021462;28;20603;-76
2023/12/13 11:46:09;;;;;;;30.65;15.18;;;;;;;;;;5037584;28;20190;-77
2023/12/13 11:48:35;;;;;;;28.67;15.88;;;;;;;;;;5022560;28;20190;-78
2023/12/13 11:51:01;;;;;;;29.25;15.35;;;;;;;;;;5026497;28;20212;-77
2023/12/13 11:53:26;;;;;;;27.23;15.20;;;;;;;;;;5022026;28;20232;-77
2023/12/13 11:55:52;;;;;;;27.13;14.90;;;;;;;;;;5043793;28;20251;-77
2023/12/13 11:58:17;;;;;;;26.88;13.65;;;;;;;;;;5023847;28;20209;-77
2023/12/13 12:00:43;;;;;;;22.90;14.15;;;;;;;;;;5023535;28;20195;-77
2023/12/13 12:03:09;;;;;;;23.00;13.27;;;;;;;;;;5033058;28;20196;-77
2023/12/13 12:05:35;;;;;;;22.42;12.60;;;;;;;;;;5020936;28;20225;-77
2023/12/13 12:08:05;;;;;;;26.38;13.02;;;;;;;;;;5007610;28;20598;-77
2023/12/13 12:10:31;;;;;;;23.92;13.27;;;;;;;;;;5043146;28;20204;-78
2023/12/13 12:13:02;;;;;;;23.60;13.60;;;;;;;;;;5022806;28;20482;-77
2023/12/13 12:15:28;;;;;;;18.73;12.88;;;;;;;;;;5027111;28;20368;-77
2023/12/13 12:17:57;;;;;;;22.95;14.25;;;;;;;;;;5030247;28;20245;-77
2023/12/13 12:20:24;;;;;;;26.65;15.65;;;;;;;;;;5025857;28;20194;-77
2023/12/13 12:22:50;;;;;;;30.45;15.50;;;;;;;;;;5008268;28;20193;-77
2023/12/13 12:25:17;;;;;;;32.78;15.52;;;;;;;;;;5033027;28;20273;-77
2023/12/13 12:27:49;;;;;;;32.17;16.00;;;;;;;;;;5042312;28;20230;-77
2023/12/13 12:30:17;;;;;;;26.50;16.33;;;;;;;;;;5029229;28;20217;-77
2023/12/13 12:32:43;;;;;;;28.15;16.73;;;;;;;;;;5028789;28;20186;-77
2023/12/13 12:35:09;;;;;;;23.90;15.05;;;;;;;;;;5031614;28;20182;-78
2023/12/13 12:37:35;;;;;;;28.48;16.35;;;;;;;;;;5030384;28;20259;-77
2023/12/13 12:40:02;;;;;;;34.63;15.07;;;;;;;;;;5012913;28;20178;-76
2023/12/13 12:42:27;;;;;;;26.25;15.75;;;;;;;;;;5058746;28;20229;-77
2023/12/13 12:44:52;;;;;;;23.25;15.32;;;;;;;;;;5052899;28;20222;-77
2023/12/13 12:47:18;;;;;;;26.60;14.88;;;;;;;;;;5058044;28;20216;-78
2023/12/13 12:49:43;;;;;;;21.70;14.63;;;;;;;;;;5043303;28;20178;-78
2023/12/13 12:52:09;;;;;;;26.33;14.10;;;;;;;;;;5066892;28;20216;-77
2023/12/13 12:54:35;;;;;;;24.80;13.90;;;;;;;;;;5052233;28;20178;-77
2023/12/13 12:57:00;;;;;;;25.20;13.98;;;;;;;;;;5045388;28;20209;-77
2023/12/13 12:59:26;;;;;;;24.05;13.57;;;;;;;;;;5050459;28;20228;-77
2023/12/13 13:01:52;;;;;;;25.30;14.52;;;;;;;;;;5049697;28;20201;-77
2023/12/13 13:04:19;;;;;;;29.00;13.68;;;;;;;;;;5051809;28;20188;-77
2023/12/13 13:06:46;;;;;;;23.63;13.73;;;;;;;;;;5049546;28;20190;-77
2023/12/13 13:09:12;;;;;;;22.27;13.73;;;;;;;;;;5033012;28;20253;-77
2023/12/13 13:11:37;;;;;;;22.70;14.32;;;;;;;;;;5049560;28;20190;-78
2023/12/13 13:14:03;;;;;;;25.33;13.70;;;;;;;;;;5049051;28;20252;-78
2023/12/13 13:16:31;;;;;;;27.00;13.80;;;;;;;;;;5035402;28;20235;-78
2023/12/13 13:18:56;;;;;;;20.85;13.32;;;;;;;;;;5045277;28;20198;-77
2023/12/13 13:21:22;;;;;;;27.17;14.32;;;;;;;;;;5048471;28;20349;-77
2023/12/13 13:23:47;;;;;;;25.00;13.80;;;;;;;;;;5047496;28;20198;-77
2023/12/13 13:26:13;;;;;;;22.20;13.65;;;;;;;;;;5046224;28;20189;-77
2023/12/13 13:28:38;;;;;;;20.20;13.40;;;;;;;;;;5055627;28;20196;-77
2023/12/13 13:31:04;;;;;;;28.05;13.95;;;;;;;;;;5049309;28;20166;-79
2023/12/13 13:33:31;;;;;;;30.95;14.10;;;;;;;;;;5045056;28;20199;-77
2023/12/13 13:35:57;;;;;;;29.10;14.05;;;;;;;;;;5035998;28;20209;-77
2023/12/13 13:38:22;;;;;;;27.52;15.98;;;;;;;;;;5045691;28;20235;-77
2023/12/13 13:40:48;;;;;;;23.67;14.80;;;;;;;;;;5049025;28;20232;-77
2023/12/13 13:43:13;;;;;;;25.70;14.60;;;;;;;;;;5059009;28;20305;-77
2023/12/13 13:45:39;;;;;;;27.23;15.75;;;;;;;;;;5048816;28;20238;-77
2023/12/13 13:48:04;;;;;;;29.88;15.98;;;;;;;;;;5018237;28;20249;-79
2023/12/13 13:50:30;;;;;;;26.73;14.85;;;;;;;;;;5062685;28;20197;-77
2023/12/13 13:52:55;;;;;;;30.55;16.35;;;;;;;;;;5032752;28;20194;-77
2023/12/13 13:55:21;;;;;;;26.08;15.93;;;;;;;;;;5038785;28;21913;-77
2023/12/13 13:57:46;;;;;;;28.45;15.77;;;;;;;;;;5027320;28;20226;-77
2023/12/13 14:00:13;;;;;;;28.65;15.90;;;;;;;;;;5016553;28;20199;-77
2023/12/13 14:02:39;;;;;;;29.25;16.08;;;;;;;;;;4999067;28;20191;-76
2023/12/13 14:05:05;;;;;;;29.80;15.40;;;;;;;;;;4998401;28;20204;-77
2023/12/13 14:07:31;;;;;;;28.77;16.42;;;;;;;;;;5013757;28;20296;-77
2023/12/13 14:10:00;;;;;;;28.05;17.10;;;;;;;;;;5000351;28;20534;-77
2023/12/13 14:12:26;;;;;;;28.67;17.23;;;;;;;;;;5017706;28;20227;-76